createdAt,value
2022-08-17T00:00:43.532Z,100.00
2022-08-17T00:03:11.348Z,100.00
2022-08-17T00:05:45.191Z,100.00
2022-08-17T00:08:13.258Z,100.00
2022-08-17T00:10:41.265Z,100.00
2022-08-17T00:13:09.746Z,100.00
2022-08-17T00:15:39.669Z,100.00
2022-08-17T00:18:53.867Z,100.00
2022-08-17T00:20:56.058Z,100.00
2022-08-17T00:23:24.272Z,100.00
2022-08-17T00:25:52.537Z,100.00
2022-08-17T00:28:20.948Z,100.00
2022-08-17T00:30:53.411Z,100.00
2022-08-17T00:33:25.564Z,100.00
2022-08-17T00:35:55.563Z,100.00
2022-08-17T00:38:24.350Z,100.00
2022-08-17T00:40:55.946Z,100.00
2022-08-17T00:43:33.084Z,100.00
2022-08-17T00:46:07.874Z,100.00
2022-08-17T00:48:36.283Z,99.53
2022-08-17T00:51:09.222Z,96.90
2022-08-17T00:53:41.890Z,97.83
2022-08-17T00:56:12.807Z,99.38
2022-08-17T00:58:41.443Z,100.00
2022-08-17T01:01:12.855Z,100.00
2022-08-17T01:03:51.554Z,100.00
2022-08-17T01:06:20.316Z,100.00
2022-08-17T01:08:48.115Z,100.00
2022-08-17T01:11:25.692Z,100.00
2022-08-17T01:13:53.685Z,100.00
2022-08-17T01:16:26.184Z,100.00
2022-08-17T01:18:56.733Z,100.00
2022-08-17T01:21:33.025Z,100.00
2022-08-17T01:24:02.345Z,100.00
2022-08-17T01:26:31.499Z,100.00
2022-08-17T01:28:59.697Z,100.00
2022-08-17T01:31:31.247Z,100.00
2022-08-17T01:34:01.866Z,100.00
2022-08-17T01:36:29.925Z,100.00
2022-08-17T01:38:57.894Z,100.00
2022-08-17T01:41:28.259Z,100.00
2022-08-17T01:44:00.687Z,100.00
2022-08-17T01:46:35.425Z,100.00
2022-08-17T01:49:07.654Z,100.00
2022-08-17T01:51:35.416Z,100.00
2022-08-17T01:54:09.487Z,99.93
2022-08-17T01:56:42.515Z,98.31
2022-08-17T01:59:10.350Z,97.31
2022-08-17T02:01:38.935Z,97.40
2022-08-17T02:04:08.395Z,99.73
2022-08-17T02:06:52.753Z,100.00
2022-08-17T02:09:24.078Z,100.00
2022-08-17T02:11:55.196Z,100.00
2022-08-17T02:14:25.331Z,99.70
2022-08-17T02:16:53.779Z,96.49
2022-08-17T02:19:21.859Z,94.61
2022-08-17T02:21:51.907Z,94.33
2022-08-17T02:24:58.754Z,95.66
2022-08-17T02:27:12.891Z,95.17
2022-08-17T02:29:40.616Z,95.13
2022-08-17T02:32:22.271Z,94.61
2022-08-17T02:34:55.897Z,94.04
2022-08-17T02:37:23.674Z,93.71
2022-08-17T02:39:51.664Z,96.66
2022-08-17T02:42:27.788Z,99.85
2022-08-17T02:44:55.535Z,100.00
2022-08-17T02:47:23.208Z,100.00
2022-08-17T02:49:54.411Z,100.00
2022-08-17T02:52:42.684Z,100.00
2022-08-17T02:55:13.782Z,100.00
2022-08-17T02:57:42.839Z,100.00
2022-08-17T03:00:14.814Z,100.00
2022-08-17T03:02:44.622Z,100.00
2022-08-17T03:05:15.006Z,100.00
2022-08-17T03:07:43.276Z,100.00
2022-08-17T03:10:12.227Z,100.00
2022-08-17T03:12:43.306Z,100.00
2022-08-17T03:15:13.472Z,100.00
2022-08-17T03:17:41.394Z,100.00
2022-08-17T03:20:10.334Z,100.00
2022-08-17T03:22:39.480Z,100.00
2022-08-17T03:25:10.686Z,100.00
2022-08-17T03:27:38.642Z,100.00
2022-08-17T03:30:13.538Z,99.27
2022-08-17T03:32:42.856Z,97.72
2022-08-17T03:35:12.578Z,97.81
2022-08-17T03:37:42.826Z,97.22
2022-08-17T03:40:12.429Z,96.09
2022-08-17T03:42:41.535Z,98.22
2022-08-17T03:45:15.628Z,100.00
2022-08-17T03:48:06.905Z,100.00
2022-08-17T03:50:52.388Z,100.00
2022-08-17T03:53:37.876Z,100.00
2022-08-17T03:56:23.665Z,100.00
2022-08-17T03:58:51.584Z,100.00
2022-08-17T04:01:20.673Z,100.00
2022-08-17T04:03:48.412Z,100.00
2022-08-17T04:06:16.569Z,100.00
2022-08-17T04:08:44.207Z,100.00
2022-08-17T04:11:11.862Z,100.00
2022-08-17T04:13:39.453Z,100.00
2022-08-17T04:16:07.432Z,100.00
2022-08-17T04:18:36.434Z,100.00
2022-08-17T04:21:04.143Z,100.00
2022-08-17T04:23:33.743Z,100.00
2022-08-17T04:26:01.731Z,100.00
2022-08-17T04:28:29.990Z,100.00
2022-08-17T04:30:58.442Z,100.00
2022-08-17T04:33:27.813Z,100.00
2022-08-17T04:35:59.826Z,100.00
2022-08-17T04:38:29.905Z,100.00
2022-08-17T04:41:15.787Z,100.00
2022-08-17T04:43:44.633Z,100.00
2022-08-17T04:46:14.497Z,100.00
2022-08-17T04:48:44.313Z,100.00
2022-08-17T04:51:16.135Z,98.14
2022-08-17T04:53:46.570Z,98.69
2022-08-17T04:56:22.242Z,98.39
2022-08-17T04:58:53.874Z,95.03
2022-08-17T05:01:24.593Z,93.15
2022-08-17T05:03:53.484Z,91.40
2022-08-17T05:06:23.395Z,91.41
2022-08-17T05:08:51.071Z,91.65
2022-08-17T05:11:19.123Z,92.02
2022-08-17T05:13:49.998Z,91.61
2022-08-17T05:16:19.010Z,91.44
2022-08-17T05:18:47.250Z,90.79
2022-08-17T05:21:16.066Z,89.98
2022-08-17T05:23:50.329Z,90.81
2022-08-17T05:26:26.658Z,91.55
2022-08-17T05:28:57.239Z,89.97
2022-08-17T05:31:28.212Z,87.62
2022-08-17T05:33:55.990Z,84.43
2022-08-17T05:36:41.808Z,85.01
2022-08-17T05:39:16.292Z,84.08
2022-08-17T05:41:45.532Z,83.11
2022-08-17T05:44:13.165Z,81.49
2022-08-17T05:46:44.809Z,78.63
2022-08-17T05:49:14.824Z,76.12
2022-08-17T05:52:00.886Z,75.13
2022-08-17T05:54:39.952Z,71.61
2022-08-17T05:57:39.506Z,70.27
2022-08-17T06:00:17.000Z,71.55
2022-08-17T06:02:59.372Z,70.58
2022-08-17T06:05:39.159Z,71.05
2022-08-17T06:08:14.055Z,68.56
2022-08-17T06:10:48.111Z,65.85
2022-08-17T06:13:23.949Z,66.16
2022-08-17T06:16:03.006Z,67.02
2022-08-17T06:18:37.529Z,65.79
2022-08-17T06:21:08.207Z,66.94
2022-08-17T06:23:39.617Z,68.07
2022-08-17T06:26:13.879Z,67.97
2022-08-17T06:28:48.034Z,67.15
2022-08-17T06:31:22.536Z,68.33
2022-08-17T06:33:51.363Z,66.17
2022-08-17T06:36:40.101Z,67.37
2022-08-17T06:39:26.572Z,68.01
2022-08-17T06:42:05.542Z,67.51
2022-08-17T06:44:49.634Z,66.42
2022-08-17T06:47:28.908Z,66.34
2022-08-17T06:50:09.156Z,63.75
2022-08-17T06:52:46.326Z,63.22
2022-08-17T06:55:21.249Z,62.49
2022-08-17T06:57:52.565Z,61.22
2022-08-17T07:00:23.857Z,62.06
2022-08-17T07:02:57.154Z,60.89
2022-08-17T07:05:27.800Z,60.43
2022-08-17T07:08:02.532Z,60.79
2022-08-17T07:10:36.526Z,60.18
2022-08-17T07:13:29.490Z,58.18
2022-08-17T07:16:07.317Z,57.17
2022-08-17T07:18:34.967Z,55.99
2022-08-17T07:21:14.216Z,54.58
2022-08-17T07:24:01.820Z,54.23
2022-08-17T07:26:29.782Z,52.81
2022-08-17T07:29:02.272Z,51.89
2022-08-17T07:31:33.681Z,53.55
2022-08-17T07:34:08.609Z,50.34
2022-08-17T07:36:36.499Z,53.12
2022-08-17T07:39:05.442Z,55.57
2022-08-17T07:41:57.598Z,53.00
2022-08-17T07:44:28.737Z,51.72
2022-08-17T07:47:14.750Z,51.83
2022-08-17T07:49:46.082Z,49.71
2022-08-17T07:52:50.619Z,49.67
2022-08-17T07:55:27.686Z,48.65
2022-08-17T07:57:57.904Z,49.12
2022-08-17T08:00:32.123Z,48.27
2022-08-17T08:03:05.949Z,49.47
2022-08-17T08:05:50.583Z,50.31
2022-08-17T08:08:27.985Z,49.86
2022-08-17T08:11:02.666Z,49.53
2022-08-17T08:13:32.317Z,50.63
2022-08-17T08:16:26.454Z,51.76
2022-08-17T08:18:57.989Z,51.52
2022-08-17T08:21:37.156Z,51.67
2022-08-17T08:24:23.538Z,52.35
2022-08-17T08:26:57.983Z,50.79
2022-08-17T08:29:31.299Z,51.87
2022-08-17T08:32:10.412Z,50.94
2022-08-17T08:35:02.314Z,51.38
2022-08-17T08:37:43.561Z,50.39
2022-08-17T08:40:29.840Z,52.29
2022-08-17T08:43:08.335Z,54.02
2022-08-17T08:45:47.132Z,53.89
2022-08-17T08:48:53.015Z,54.72
2022-08-17T08:51:34.811Z,57.21
2022-08-17T08:54:09.975Z,55.85
2022-08-17T08:57:11.614Z,55.77
2022-08-17T08:59:35.094Z,57.12
2022-08-17T09:02:23.373Z,55.65
2022-08-17T09:05:14.236Z,56.30
2022-08-17T09:07:56.243Z,56.73
2022-08-17T09:10:30.733Z,58.24
2022-08-17T09:13:10.282Z,57.69
2022-08-17T09:15:43.501Z,57.76
2022-08-17T09:19:03.411Z,55.67
2022-08-17T09:21:12.009Z,55.02
2022-08-17T09:23:49.563Z,53.56
2022-08-17T09:26:22.811Z,53.48
2022-08-17T09:28:53.674Z,54.19
2022-08-17T09:31:26.829Z,54.21
2022-08-17T09:34:00.074Z,52.24
2022-08-17T09:36:34.473Z,52.28
2022-08-17T09:39:07.367Z,51.87
2022-08-17T09:41:49.302Z,53.16
2022-08-17T09:44:25.662Z,52.66
2022-08-17T09:47:00.030Z,52.69
2022-08-17T09:49:32.671Z,52.26
2022-08-17T09:52:06.819Z,52.70
2022-08-17T09:54:39.845Z,52.86
2022-08-17T09:57:31.527Z,51.39
2022-08-17T10:00:16.669Z,52.83
2022-08-17T10:03:08.679Z,52.18
2022-08-17T10:05:46.438Z,51.87
2022-08-17T10:08:23.915Z,51.90
2022-08-17T10:11:06.841Z,52.71
2022-08-17T10:13:53.210Z,51.49
2022-08-17T10:16:27.833Z,51.05
2022-08-17T10:19:04.161Z,52.25
2022-08-17T10:22:01.373Z,53.39
2022-08-17T10:25:23.829Z,51.76
2022-08-17T10:27:55.627Z,51.35
2022-08-17T10:30:27.614Z,51.40
2022-08-17T10:32:59.311Z,51.04
2022-08-17T10:35:34.218Z,51.79
2022-08-17T10:38:32.203Z,51.73
2022-08-17T10:41:07.604Z,51.21
2022-08-17T10:43:55.836Z,51.01
2022-08-17T10:46:52.335Z,50.52
2022-08-17T10:49:27.914Z,50.81
2022-08-17T10:51:57.952Z,51.56
2022-08-17T10:54:38.726Z,50.83
2022-08-17T10:57:37.355Z,50.73
2022-08-17T11:00:10.166Z,51.40
2022-08-17T11:02:50.223Z,51.13
2022-08-17T11:05:43.683Z,51.02
2022-08-17T11:08:36.259Z,51.34
2022-08-17T11:11:34.648Z,50.49
2022-08-17T11:14:17.009Z,50.20
2022-08-17T11:16:54.885Z,50.56
2022-08-17T11:19:44.376Z,49.95
2022-08-17T11:22:57.858Z,50.49
2022-08-17T11:25:35.072Z,50.81
2022-08-17T11:28:08.794Z,50.96
2022-08-17T11:30:52.065Z,51.26
2022-08-17T11:33:55.664Z,50.00
2022-08-17T11:36:49.103Z,49.76
2022-08-17T11:39:36.013Z,49.50
2022-08-17T11:42:07.023Z,49.47
2022-08-17T11:44:45.366Z,49.32
2022-08-17T11:47:38.662Z,49.05
2022-08-17T11:51:12.717Z,48.12
2022-08-17T11:54:31.040Z,49.48
2022-08-17T11:56:52.822Z,48.69
2022-08-17T11:59:59.113Z,50.66
2022-08-17T12:02:47.545Z,50.88
2022-08-17T12:05:35.595Z,51.82
2022-08-17T12:08:12.746Z,51.97
2022-08-17T12:11:01.168Z,51.12
2022-08-17T12:13:34.627Z,50.26
2022-08-17T12:16:09.334Z,50.60
2022-08-17T12:18:41.918Z,50.72
2022-08-17T12:21:23.547Z,51.77
2022-08-17T12:23:57.943Z,51.41
2022-08-17T12:26:30.287Z,51.72
2022-08-17T12:29:02.111Z,50.60
2022-08-17T12:31:35.402Z,51.15
2022-08-17T12:34:05.965Z,51.66
2022-08-17T12:36:34.694Z,51.44
2022-08-17T12:39:12.979Z,51.73
2022-08-17T12:41:44.961Z,49.80
2022-08-17T12:44:16.457Z,50.74
2022-08-17T12:46:54.083Z,49.83
2022-08-17T12:49:28.971Z,49.96
2022-08-17T12:52:05.710Z,50.54
2022-08-17T12:54:41.210Z,51.28
2022-08-17T12:57:14.095Z,51.20
2022-08-17T12:59:45.258Z,50.76
2022-08-17T13:02:22.976Z,51.76
2022-08-17T13:04:52.041Z,50.73
2022-08-17T13:07:31.754Z,50.81
2022-08-17T13:10:00.018Z,52.35
2022-08-17T13:12:29.939Z,51.31
2022-08-17T13:14:58.406Z,52.04
2022-08-17T13:17:29.458Z,50.55
2022-08-17T13:19:58.787Z,50.72
2022-08-17T13:22:29.294Z,50.73
2022-08-17T13:25:03.872Z,50.97
2022-08-17T13:27:32.582Z,51.34
2022-08-17T13:30:05.747Z,52.12
2022-08-17T13:32:37.261Z,51.19
2022-08-17T13:35:44.268Z,50.14
2022-08-17T13:38:36.534Z,50.46
2022-08-17T13:41:07.394Z,50.98
2022-08-17T13:43:45.526Z,51.34
2022-08-17T13:46:20.328Z,50.37
2022-08-17T13:48:59.255Z,50.07
2022-08-17T13:51:35.479Z,50.23
2022-08-17T13:54:28.705Z,49.13
2022-08-17T13:57:02.258Z,49.74
2022-08-17T13:59:54.218Z,50.05
2022-08-17T14:02:27.210Z,50.37
2022-08-17T14:05:02.058Z,50.71
2022-08-17T14:07:37.949Z,51.93
2022-08-17T14:10:12.801Z,52.20
2022-08-17T14:12:43.062Z,52.60
2022-08-17T14:15:12.541Z,51.73
2022-08-17T14:17:40.166Z,51.36
2022-08-17T14:20:11.045Z,51.44
2022-08-17T14:22:44.255Z,53.05
2022-08-17T14:25:14.757Z,52.73
2022-08-17T14:27:52.838Z,52.91
2022-08-17T14:30:22.894Z,52.79
2022-08-17T14:32:51.917Z,53.38
2022-08-17T14:35:22.241Z,54.86
2022-08-17T14:37:51.618Z,55.42
2022-08-17T14:40:24.701Z,56.26
2022-08-17T14:42:55.128Z,54.98
2022-08-17T14:45:30.058Z,54.79
2022-08-17T14:48:01.512Z,54.80
2022-08-17T14:50:29.220Z,54.57
2022-08-17T14:52:58.328Z,55.26
2022-08-17T14:55:32.416Z,54.31
2022-08-17T14:58:00.134Z,54.07
2022-08-17T15:00:28.546Z,54.81
2022-08-17T15:02:58.503Z,55.00
2022-08-17T15:05:32.468Z,55.25
2022-08-17T15:08:02.824Z,54.81
2022-08-17T15:10:31.237Z,54.93
2022-08-17T15:13:00.145Z,55.90
2022-08-17T15:15:28.831Z,55.42
2022-08-17T15:17:57.223Z,54.76
2022-08-17T15:20:27.968Z,54.95
2022-08-17T15:22:57.179Z,55.73
2022-08-17T15:25:28.144Z,56.46
2022-08-17T15:27:56.588Z,55.80
2022-08-17T15:30:25.688Z,56.26
2022-08-17T15:32:55.289Z,56.57
2022-08-17T15:35:27.809Z,56.67
2022-08-17T15:37:57.731Z,55.53
2022-08-17T15:40:26.956Z,56.31
2022-08-17T15:42:54.899Z,55.74
2022-08-17T15:45:26.969Z,53.92
2022-08-17T15:47:54.979Z,53.37
2022-08-17T15:50:22.921Z,54.04
2022-08-17T15:52:57.935Z,56.01
2022-08-17T15:55:29.382Z,56.28
2022-08-17T15:57:57.136Z,55.26
2022-08-17T16:00:25.872Z,54.34
2022-08-17T16:03:46.347Z,54.80
2022-08-17T16:05:44.028Z,54.51
2022-08-17T16:08:20.195Z,55.80
2022-08-17T16:10:50.993Z,55.03
2022-08-17T16:13:19.620Z,56.51
2022-08-17T16:15:57.094Z,55.76
2022-08-17T16:18:28.481Z,57.09
2022-08-17T16:20:56.446Z,57.27
2022-08-17T16:23:24.156Z,57.45
2022-08-17T16:25:54.597Z,57.59
2022-08-17T16:28:35.778Z,58.44
2022-08-17T16:31:08.193Z,58.37
2022-08-17T16:33:39.340Z,58.90
2022-08-17T16:36:08.944Z,59.62
2022-08-17T16:38:37.245Z,60.93
2022-08-17T16:41:07.023Z,61.38
2022-08-17T16:43:36.058Z,61.48
2022-08-17T16:46:03.790Z,62.03
2022-08-17T16:48:31.878Z,62.38
2022-08-17T16:51:03.390Z,62.75
2022-08-17T16:53:33.583Z,62.76
2022-08-17T16:56:01.248Z,63.15
2022-08-17T16:58:30.261Z,63.72
2022-08-17T17:00:59.281Z,64.03
2022-08-17T17:03:30.062Z,64.64
2022-08-17T17:06:07.154Z,64.93
2022-08-17T17:08:43.607Z,65.32
2022-08-17T17:11:15.516Z,65.46
2022-08-17T17:13:54.096Z,66.18
2022-08-17T17:16:27.445Z,66.47
2022-08-17T17:19:09.286Z,66.70
2022-08-17T17:21:45.130Z,66.77
2022-08-17T17:24:18.005Z,67.76
2022-08-17T17:27:07.512Z,68.14
2022-08-17T17:29:51.303Z,67.80
2022-08-17T17:32:26.384Z,67.92
2022-08-17T17:35:02.146Z,68.05
2022-08-17T17:37:35.235Z,68.63
2022-08-17T17:40:09.470Z,68.59
2022-08-17T17:42:41.370Z,68.36
2022-08-17T17:45:19.910Z,68.31
2022-08-17T17:47:48.487Z,67.92
2022-08-17T17:50:18.142Z,67.35
2022-08-17T17:52:59.222Z,66.87
2022-08-17T17:55:39.468Z,68.32
2022-08-17T17:58:26.527Z,67.46
2022-08-17T18:01:10.783Z,67.32
2022-08-17T18:03:54.538Z,67.64
2022-08-17T18:06:30.494Z,66.62
2022-08-17T18:09:10.255Z,66.00
2022-08-17T18:11:53.910Z,69.36
2022-08-17T18:14:42.225Z,68.94
2022-08-17T18:17:14.387Z,67.97
2022-08-17T18:19:42.238Z,67.59
2022-08-17T18:22:14.159Z,68.10
2022-08-17T18:24:44.205Z,68.88
2022-08-17T18:27:25.186Z,69.75
2022-08-17T18:29:53.991Z,69.95
2022-08-17T18:32:35.648Z,70.15
2022-08-17T18:35:28.538Z,70.52
2022-08-17T18:37:59.071Z,70.92
2022-08-17T18:40:35.150Z,71.33
2022-08-17T18:43:07.445Z,71.38
2022-08-17T18:45:39.532Z,71.58
2022-08-17T18:48:23.690Z,72.10
2022-08-17T18:50:54.199Z,71.89
2022-08-17T18:53:35.845Z,72.35
2022-08-17T18:56:30.647Z,72.58
2022-08-17T18:59:14.079Z,73.52
2022-08-17T19:01:59.900Z,74.01
2022-08-17T19:04:35.578Z,74.76
2022-08-17T19:07:26.044Z,75.15
2022-08-17T19:09:58.252Z,75.47
2022-08-17T19:12:34.575Z,75.76
2022-08-17T19:15:03.534Z,76.11
2022-08-17T19:17:39.142Z,76.05
2022-08-17T19:20:16.794Z,76.60
2022-08-17T19:22:58.632Z,76.59
2022-08-17T19:25:30.205Z,77.43
2022-08-17T19:28:12.623Z,77.54
2022-08-17T19:30:51.455Z,77.60
2022-08-17T19:33:19.456Z,77.99
2022-08-17T19:36:00.290Z,78.13
2022-08-17T19:38:43.274Z,78.34
2022-08-17T19:41:19.402Z,78.98
2022-08-17T19:44:15.232Z,78.89
2022-08-17T19:46:56.117Z,78.97
2022-08-17T19:49:41.415Z,79.38
2022-08-17T19:52:36.298Z,79.54
2022-08-17T19:55:10.216Z,79.76
2022-08-17T19:57:50.493Z,80.21
2022-08-17T20:00:20.129Z,80.89
2022-08-17T20:02:55.458Z,81.33
2022-08-17T20:05:27.864Z,81.41
2022-08-17T20:08:03.149Z,81.77
2022-08-17T20:10:39.831Z,82.23
2022-08-17T20:13:11.834Z,82.27
2022-08-17T20:15:42.493Z,82.31
2022-08-17T20:18:19.343Z,82.30
2022-08-17T20:20:56.357Z,82.73
2022-08-17T20:23:51.322Z,82.86
2022-08-17T20:26:23.721Z,84.15
2022-08-17T20:29:37.096Z,83.44
2022-08-17T20:32:18.438Z,84.38
2022-08-17T20:34:48.281Z,84.15
2022-08-17T20:37:32.388Z,86.13
2022-08-17T20:40:25.897Z,85.40
2022-08-17T20:43:01.431Z,84.66
2022-08-17T20:46:05.157Z,84.85
2022-08-17T20:48:38.973Z,84.71
2022-08-17T20:51:23.555Z,85.12
2022-08-17T20:54:05.575Z,85.41
2022-08-17T20:57:00.326Z,85.90
2022-08-17T20:59:57.264Z,85.54
2022-08-17T21:02:27.495Z,85.99
2022-08-17T21:05:34.825Z,86.29
2022-08-17T21:08:14.248Z,86.02
2022-08-17T21:10:46.394Z,86.67
2022-08-17T21:13:56.250Z,87.15
2022-08-17T21:16:36.268Z,86.36
2022-08-17T21:19:23.809Z,86.57
2022-08-17T21:22:04.353Z,86.88
2022-08-17T21:24:45.647Z,86.23
2022-08-17T21:27:30.186Z,86.39
2022-08-17T21:30:25.376Z,85.66
2022-08-17T21:33:20.367Z,85.73
2022-08-17T21:35:51.716Z,86.16
2022-08-17T21:38:23.470Z,86.50
2022-08-17T21:40:54.216Z,87.36
2022-08-17T21:43:26.513Z,86.65
2022-08-17T21:46:02.616Z,86.69
2022-08-17T21:48:32.972Z,86.82
2022-08-17T21:51:08.258Z,86.95
2022-08-17T21:53:40.998Z,86.82
2022-08-17T21:56:10.922Z,87.18
2022-08-17T21:58:40.948Z,87.09
2022-08-17T22:01:24.182Z,87.45
2022-08-17T22:04:01.602Z,87.32
2022-08-17T22:06:34.323Z,87.54
2022-08-17T22:09:14.364Z,87.36
2022-08-17T22:11:53.646Z,87.29
2022-08-17T22:14:25.668Z,87.64
2022-08-17T22:17:17.041Z,88.08
2022-08-17T22:19:48.903Z,87.64
2022-08-17T22:22:59.787Z,87.39
2022-08-17T22:25:28.472Z,87.71
2022-08-17T22:27:58.519Z,87.91
2022-08-17T22:30:33.681Z,87.84
2022-08-17T22:33:23.509Z,88.14
2022-08-17T22:36:10.544Z,88.09
2022-08-17T22:38:39.303Z,88.75
2022-08-17T22:41:34.814Z,88.41
2022-08-17T22:44:14.112Z,88.52
2022-08-17T22:46:51.564Z,88.75
2022-08-17T22:49:26.620Z,88.38
2022-08-17T22:52:03.537Z,88.82
2022-08-17T22:54:49.566Z,88.79
2022-08-17T22:57:36.303Z,88.63
2022-08-17T23:00:06.724Z,88.79
2022-08-17T23:02:35.859Z,88.86
2022-08-17T23:05:21.941Z,88.90
2022-08-17T23:07:53.263Z,88.73
2022-08-17T23:10:21.142Z,88.73
2022-08-17T23:12:48.973Z,88.92
2022-08-17T23:15:19.334Z,88.60
2022-08-17T23:17:47.660Z,89.30
2022-08-17T23:20:17.529Z,89.39
2022-08-17T23:22:52.507Z,89.58
2022-08-17T23:25:28.006Z,89.46
2022-08-17T23:27:57.420Z,89.01
2022-08-17T23:30:28.453Z,88.44
2022-08-17T23:32:56.853Z,89.05
2022-08-17T23:35:40.149Z,88.94
2022-08-17T23:38:10.415Z,89.41
2022-08-17T23:40:39.190Z,88.66
2022-08-17T23:43:23.732Z,89.28
2022-08-17T23:45:53.507Z,89.87
2022-08-17T23:48:30.359Z,89.42
2022-08-17T23:51:06.121Z,89.12
2022-08-17T23:53:36.365Z,89.03
2022-08-17T23:56:10.341Z,89.42
2022-08-17T23:58:39.606Z,89.82
